• Join FlightAware (Why Join?)
  • Login
  • US Flag 
02:26PM EDT


 

Airport Tracker/Info


-or-


 

Live Flight TrackerFlight Track Log ✈ AWE710 ✈ 11-Apr-2013 ✈ KPHL - LSZH / ZRH

Flight Track Log - Related Links

Times and Time Zones

All times are in EDT time to prevent confusion due to time zone crossing. See the AWE710 flight status page for this flight to view local times or setup timezone preferences in your user account.

Time Position Orientation Groundspeed Altitude Reporting Facility
EDT Latitude Longitude Course Direction KTS MPH feet Rate Location/Type
12:56AM 39.8720 -74.6460 62° Northeast 431 496 12,800  Level FlightAware
12:56AM 39.8886 -74.6044 63° Northeast 437 503 13,700 3,600 Climbing FlightAware ADS-B
12:57AM 39.9163 -74.5335 63° Northeast 434 499 15,600 3,900 Climbing FlightAware ADS-B
12:57AM 39.9361 -74.4832 63° Northeast 419 482 17,500 3,660 Climbing FlightAware ADS-B
12:58AM 39.9707 -74.4018 61° Northeast 427 491 19,200 2,940 Climbing FlightAware ADS-B
12:58AM 40.0004 -74.3339 60° Northeast 433 498 20,500 2,760 Climbing FlightAware ADS-B
12:59AM 40.0210 -74.2878 60° Northeast 435 501 21,500 2,880 Climbing FlightAware ADS-B
12:59AM 40.0297 -74.2664 62° Northeast 439 505 21,900 2,400 Climbing FlightAware ADS-B
12:59AM 40.0527 -74.2041 64° Northeast 445 512 22,900 2,280 Climbing FlightAware ADS-B
01:00AM 40.0784 -74.1292 66° East 452 520 24,100 2,220 Climbing FlightAware ADS-B
01:00AM 40.1052 -74.0499 66° East 456 525 25,200 1,980 Climbing FlightAware ADS-B
01:01AM 40.1313 -73.9716 66° East 465 535 26,200 1,920 Climbing FlightAware ADS-B
01:01AM 40.1573 -73.8927 67° East 472 543 27,200 1,740 Climbing FlightAware ADS-B
01:02AM 40.1847 -73.8089 67° East 479 551 28,000 1,500 Climbing FlightAware ADS-B
01:02AM 40.2118 -73.7253 67° East 487 560 28,800 1,560 Climbing FlightAware ADS-B
01:03AM 40.2398 -73.6392 67° East 493 567 29,700 1,740 Climbing FlightAware ADS-B
01:03AM 40.2693 -73.5485 67° East 494 568 30,700 1,860 Climbing FlightAware ADS-B
01:04AM 40.2966 -73.4653 67° East 495 570 31,700 2,220 Climbing FlightAware ADS-B
01:04AM 40.3239 -73.3821 67° East 484 557 33,000 2,400 Climbing FlightAware ADS-B
01:05AM 40.3518 -73.2972 67° East 476 548 34,200 1,920 Climbing FlightAware ADS-B
01:05AM 40.3780 -73.2170 67° East 476 548 35,000 720 Climbing FlightAware ADS-B
01:06AM 40.4057 -73.1316 67° East 482 555 35,000  Level FlightAware ADS-B
01:07AM 40.4370 -73.0342 67° East 487 560 35,000  Level FlightAware ADS-B
01:07AM 40.4652 -72.9464 67° East 490 564 35,000  Level FlightAware ADS-B
01:08AM 40.4934 -72.8579 67° East 493 567 35,000  Level FlightAware ADS-B
01:08AM 40.5198 -72.7745 67° East 494 568 35,000  Level FlightAware ADS-B
01:09AM 40.5473 -72.6882 67° East 496 571 35,000  Level FlightAware ADS-B
01:09AM 40.5741 -72.6035 67° East 497 572 35,000  Level FlightAware ADS-B
01:10AM 40.6007 -72.5194 67° East 498 573 35,000  Level FlightAware ADS-B
01:10AM 40.6305 -72.4250 67° East 498 573 35,000  Level FlightAware ADS-B
01:11AM 40.6582 -72.3378 67° East 499 574 35,000  Level FlightAware ADS-B
01:11AM 40.6848 -72.2526 68° East 498 573 35,000  Level FlightAware ADS-B
01:12AM 40.7115 -72.1664 68° East 497 572 35,000  Level FlightAware ADS-B
01:12AM 40.7380 -72.0817 68° East 496 571 35,000  Level FlightAware ADS-B
01:13AM 40.7656 -71.9921 68° East 496 571 35,000  Level FlightAware ADS-B
01:13AM 40.7931 -71.9026 68° East 496 571 35,000  Level FlightAware ADS-B
01:14AM 40.8211 -71.8106 68° East 495 570 35,000  Level FlightAware ADS-B
01:15AM 40.8497 -71.7153 68° East 495 570 35,000  Level FlightAware ADS-B
01:15AM 40.8753 -71.6312 68° East 495 570 35,000  Level FlightAware ADS-B
01:16AM 40.9012 -71.5450 68° East 497 572 35,000  Level FlightAware ADS-B
01:16AM 40.9301 -71.4491 68° East 499 574 35,000  Level FlightAware ADS-B
01:17AM 40.9601 -71.3480 69° East 502 578 35,000  Level FlightAware ADS-B
01:17AM 40.9876 -71.2562 68° East 503 579 35,000  Level FlightAware ADS-B
01:18AM 41.0188 -71.1509 69° East 503 579 35,000  Level FlightAware ADS-B
01:18AM 41.0456 -71.0609 68° East 504 580 35,000  Level FlightAware ADS-B
01:19AM 41.0900 -70.9110 69° East 502 578 35,000  Level FlightAware
01:20AM 41.1240 -70.7980 68° East 501 577 35,000  Level FlightAware
01:21AM 41.1580 -70.6820 69° East 503 579 35,000  Level FlightAware
01:21AM 41.1960 -70.5510 69° East 504 580 35,000  Level FlightAware
01:22AM 41.2420 -70.3950 69° East 505 581 35,000  Level FlightAware
01:23AM 41.2770 -70.2750 69° East 507 583 35,000  Level FlightAware
01:24AM 41.3130 -70.1470 69° East 506 582 35,000  Level FlightAware
01:25AM 41.3600 -69.9850 69° East 507 583 35,000  Level FlightAware
01:25AM 41.3900 -69.8760 70° East 506 582 35,000  Level FlightAware
01:26AM 41.4220 -69.7650 69° East 507 583 35,000  Level FlightAware
01:27AM 41.4580 -69.6360 70° East 509 586 35,000  Level FlightAware
01:27AM 41.4940 -69.5090 69° East 508 585 35,000  Level FlightAware
01:28AM 41.5250 -69.3950 70° East 509 586 35,000  Level FlightAware
01:29AM 41.5630 -69.2580 70° East 508 585 35,000  Level FlightAware
01:29AM 41.5990 -69.1280 70° East 508 585 35,000  Level FlightAware
01:30AM 41.6310 -69.0100 70° East 508 585 35,000  Level FlightAware
01:31AM 41.6670 -68.8830 69° East 508 585 35,000  Level FlightAware
01:31AM 41.6900 -68.7950 71° East 508 585 35,000  Level FlightAware
01:32AM 41.7240 -68.6780 69° East 508 585 35,000  Level FlightAware
01:33AM 41.7680 -68.5100 71° East 505 581 35,000  Level FlightAware
01:34AM 41.7950 -68.4110 70° East 505 581 35,000  Level FlightAware
01:34AM 41.8300 -68.2770 71° East 506 582 35,000  Level FlightAware
01:35AM 41.8620 -68.1560 70° East 506 582 35,000  Level FlightAware
01:36AM 41.8870 -68.0550 72° East 506 582 35,000  Level FlightAware
01:36AM 41.9130 -67.9540 71° East 506 582 35,000  Level FlightAware
01:37AM 41.9640 -67.7730 69° East 507 583 35,000  Level FlightAware
01:38AM 42.0080 -67.6040 71° East 509 586 35,000  Level FlightAware
01:39AM 42.0500 -67.4410 71° East 510 587 35,000  Level FlightAware
01:40AM 42.0760 -67.3380 71° East 510 587 35,000  Level FlightAware
01:40AM 42.1020 -67.2360 71° East 510 587 35,000  Level FlightAware
01:41AM 42.1290 -67.1340 70° East 510 587 35,000  Level FlightAware
01:42AM 42.1550 -67.0320 71° East 510 587 35,000  Level FlightAware
01:42AM 42.1870 -66.9040 71° East 510 587 35,000  Level FlightAware
01:43AM 42.2130 -66.8010 71° East 510 587 35,000  Level FlightAware
01:44AM 42.2390 -66.6990 71° East 510 587 35,000  Level FlightAware
01:45AM 42.2720 -66.5710 71° East 510 587 35,000  Level FlightAware
01:45AM 42.2980 -66.4680 71° East 510 587 35,000  Level FlightAware
01:46AM 42.3240 -66.3660 71° East 510 587 35,000  Level FlightAware
01:47AM 42.3500 -66.2630 71° East 510 587 35,000  Level FlightAware
01:47AM 42.3770 -66.1600 70° East 510 587 35,000  Level FlightAware
01:48AM 42.4090 -66.0320 71° East 510 587 35,000  Level FlightAware
01:49AM 42.5500 -65.5500 71° East 520 598 35,000  Level Moncton Center
01:50AM 42.6000 -65.3667 70° East 530 610 35,000  Level Moncton Center
01:51AM 42.6333 -65.1667 77° East 530 610 35,000  Level Moncton Center
01:52AM 42.6833 -64.9833 70° East 530 610 35,000  Level Moncton Center
01:53AM 42.7333 -64.7833 71° East 530 610 35,000  Level Moncton Center
01:54AM 42.7667 -64.6000 76° East 530 610 35,000  Level Moncton Center
01:55AM 42.8167 -64.4167 70° East 530 610 35,000  Level Moncton Center
01:56AM 42.8500 -64.2167 77° East 530 610 35,000  Level Moncton Center
01:57AM 42.9000 -64.0333 70° East 530 610 35,000  Level Moncton Center
01:58AM 42.9333 -63.8333 77° East 520 598 35,000  Level Moncton Center
01:59AM 42.9833 -63.6500 69° East 520 598 35,000  Level Moncton Center
02:00AM 43.0167 -63.4667 76° East 530 610 35,000  Level Moncton Center
02:01AM 43.0667 -63.2500 72° East 530 610 35,000  Level Moncton Center
02:02AM 43.1000 -63.0667 76° East 530 610 35,000  Level Moncton Center
02:03AM 43.1333 -62.8667 77° East 530 610 35,000  Level Moncton Center
02:04AM 43.1833 -62.6833 69° East 530 610 35,000  Level Moncton Center
02:05AM 43.2167 -62.5000 76° East 530 610 35,000  Level Moncton Center
02:06AM 43.2500 -62.2667 79° East 530 610 35,000  Level Gander Center
02:07AM 43.3167 -62.0833 63° Northeast 530 610 35,000  Level Gander Center
02:08AM 43.3500 -61.8833 77° East 530 610 35,000  Level Gander Center
02:09AM 43.3833 -61.7000 76° East 530 610 35,000  Level Gander Center
02:10AM 43.4333 -61.4833 72° East 530 610 35,000  Level Gander Center
02:11AM 43.4667 -61.2833 77° East 530 610 35,000  Level Gander Center
02:12AM 43.5000 -61.0833 77° East 530 610 35,000  Level Gander Center
02:13AM 43.5500 -60.9000 69° East 530 610 35,000  Level Gander Center
02:14AM 43.5833 -60.7000 77° East 530 610 35,000  Level Gander Center
02:15AM 43.6167 -60.5000 77° East 540 621 35,000  Level Gander Center
02:16AM 43.6333 -60.3000 83° East 540 621 35,000  Level Gander Center
02:17AM 43.6833 -60.0833 72° East 540 621 35,000  Level Gander Center
02:18AM 43.7167 -59.9000 76° East 540 621 35,000  Level Gander Center
02:19AM 43.7667 -59.6833 72° East 540 621 35,000  Level Gander Center
02:20AM 43.8000 -59.4833 77° East 550 633 35,000  Level Gander Center
02:21AM 43.8333 -59.2667 78° East 550 633 35,000  Level Gander Center
02:22AM 43.8667 -59.0667 77° East 550 633 35,000  Level Gander Center
02:23AM 43.9000 -58.8833 76° East 550 633 35,000  Level Gander Center
02:24AM 43.9333 -58.6667 78° East 550 633 35,000  Level Gander Center
02:25AM 43.9667 -58.4667 77° East 560 644 35,000  Level Gander Center
02:26AM 44.0000 -58.2500 78° East 550 633 35,000  Level Gander Center
02:27AM 44.0500 -58.0333 72° East 560 644 35,000  Level Gander Center
02:28AM 44.0667 -57.8333 83° East 560 644 35,000  Level Gander Center
02:29AM 44.1000 -57.6167 78° East 560 644 35,000  Level Gander Center
02:30AM 44.1333 -57.3833 79° East 560 644 35,000  Level Gander Center
02:31AM 44.1667 -57.2000 76° East 560 644 35,000  Level Gander Center
02:32AM 44.2000 -56.9833 78° East 560 644 35,000  Level Gander Center
02:33AM 44.2333 -56.7667 78° East 560 644 35,000  Level Gander Center
02:34AM 44.2500 -56.5667 83° East 560 644 35,000 480 Level Gander Center
02:35AM 44.3000 -56.3500 72° East 560 644 36,000 1,080 Climbing Moncton Center
02:35AM 44.3000 -56.3500 72° East 560 644 36,100 960 Climbing Gander Center
02:36AM 44.3167 -56.1667 83° East 560 644 37,000 420 Climbing Moncton Center
02:37AM 44.3500 -55.9167 79° East 560 644 37,000  Level Gander Center
02:38AM 44.3833 -55.7167 77° East 550 633 37,000  Level Gander Center
02:39AM 44.4000 -55.5000 84° East 550 633 37,000  Level Gander Center
02:40AM 44.4333 -55.2833 78° East 540 621 37,000  Level Gander Center
02:41AM 44.4500 -55.0667 84° East 550 633 37,000  Level Gander Center
02:42AM 44.4833 -54.8500 78° East 560 644 37,000  Level Gander Center
02:43AM 44.5000 -54.6667 83° East 560 644 37,000  Level Gander Center
02:44AM 44.5333 -54.4667 77° East 530 610 37,000  Level Moncton Center
02:45AM 44.5667 -54.2333 79° East 550 633 37,000  Level Gander Center
02:46AM 44.5833 -54.0167 84° East 540 621 37,000  Level Gander Center
02:47AM 44.6000 -53.8167 83° East 550 633 37,000  Level Gander Center
02:48AM 44.6333 -53.6000 78° East 560 644 37,000  Level Gander Center
02:48AM 44.6333 -53.5167 90° East 560 644 37,000  Level Gander Center
02:49AM 44.6500 -53.4000 79° East 550 633 37,000  Level Moncton Center
02:49AM 44.6667 -53.3000 77° East 560 644 37,000  Level Gander Center
02:50AM 44.6833 -53.1000 83° East 560 644 37,000  Level Gander Center
02:51AM 44.7000 -52.9667 80° East 570 656 37,000  Level Moncton Center
02:51AM 44.7167 -52.8500 79° East 560 644 37,000  Level Gander Center
02:52AM 44.7333 -52.6333 84° East 570 656 37,000  Level Gander Center
02:53AM 44.7333 -52.5000 90° East 570 656 37,000  Level Gander Center
02:54AM 44.7667 -52.2833 78° East 570 656 37,000  Level Gander Center
02:54AM 44.7833 -52.2000 74° East 570 656 37,000  Level Gander Center
02:55AM 44.7833 -52.0667 90° East 570 656 37,000  Level Gander Center
02:56AM 44.8167 -51.8167 79° East 570 656 37,000  Level Gander Center
02:56AM 44.8167 -51.7500 90° East 580 667 37,000  Level Gander Center
02:57AM 44.8333 -51.5333 84° East 570 656 37,000 1,020 Level Gander Center
02:58AM 44.8500 -51.3833 81° East 570 656 38,700 1,980 Climbing Gander Center
02:58AM 44.8500 -51.3167 90° East 550 633 39,000 300 Climbing Gander Center
02:59AM 44.8667 -51.2000 79° East 530 610 39,000  Level Gander Center
03:00AM 44.8833 -50.9833 84° East 520 598 39,000  Level Gander Center
03:01AM 44.9000 -50.7833 83° East 530 610 39,000  Level Gander Center
03:02AM 44.9167 -50.5833 83° East 530 610 39,000  Level Gander Center
03:03AM 44.9500 -50.3500 79° East 550 633 39,000  Level Gander Center
03:04AM 44.9500 -50.1667 90° East 540 621 39,000  Level Gander Center
03:05AM 44.9833 -49.9500 78° East 520 598 39,000  Level Gander Center
03:06AM 45.0167 -49.7667 76° East 510 587 39,000  Level Gander Center
03:07AM 45.0000 -50.0000 70° East 509 586 39,000  Level ETMS Enhanced Traffic Management System
03:07AM 45.0667 -49.5667 70° East 510 587 39,000  Level Gander Center
03:08AM 45.1167 -49.4000 67° East 510 587 39,000  Level Gander Center
03:08AM 45.1167 -49.3167 90° East 500 575 39,000  Level Gander Center
03:09AM 45.1500 -49.2000 68° East 510 587 39,000  Level Gander Center
03:09AM 45.1667 -49.1167 74° East 520 598 39,000  Level Gander Center
03:10AM 45.2000 -48.9167 77° East 520 598 39,000  Level Gander Center
03:11AM 45.2333 -48.8167 65° Northeast 510 587 39,000  Level Gander Center
03:12AM 45.2833 -48.6000 72° East 510 587 39,000  Level Gander Center
03:13AM 45.3167 -48.4167 75° East 520 598 39,000  Level Gander Center
03:13AM 45.3500 -48.3667 47° Northeast 520 598 39,000  Level Gander Center
03:14AM 45.3833 -48.2167 72° East 520 598 39,000  Level Gander Center
03:15AM 45.4167 -48.0333 75° East 510 587 39,000  Level Gander Center
03:16AM 45.4667 -47.8333 70° East 520 598 39,000  Level Gander Center
03:16AM 45.4667 -47.7833 90° East 530 610 39,000  Level Gander Center
03:17AM 45.5167 -47.5833 70° East 520 598 39,000  Level Gander Center
03:18AM 45.5667 -47.4000 69° East 520 598 39,000  Level Gander Center
03:20AM 45.6171 -47.1811 72° East  Level FlightAware Approximate
03:27AM 45.9111 -45.8593 72° East  Level FlightAware Approximate
03:28AM 45.9526 -45.6657 73° East  Level FlightAware Approximate
03:29AM 45.9938 -45.4719 73° East  Level FlightAware Approximate
03:30AM 46.0346 -45.2778 73° East  Level FlightAware Approximate
03:31AM 46.0752 -45.0834 73° East  Level FlightAware Approximate
03:32AM 46.1154 -44.8887 73° East  Level FlightAware Approximate
03:33AM 46.1552 -44.6938 73° East  Level FlightAware Approximate
03:34AM 46.1948 -44.4986 74° East  Level FlightAware Approximate
03:35AM 46.2340 -44.3030 74° East  Level FlightAware Approximate
03:36AM 46.2728 -44.1072 74° East  Level FlightAware Approximate
03:37AM 46.3114 -43.9112 74° East  Level FlightAware Approximate
03:38AM 46.3496 -43.7148 74° East  Level FlightAware Approximate
03:39AM 46.3874 -43.5182 74° East  Level FlightAware Approximate
03:40AM 46.4249 -43.3213 74° East  Level FlightAware Approximate
03:41AM 46.4621 -43.1241 75° East  Level FlightAware Approximate
03:42AM 46.4990 -42.9267 75° East  Level FlightAware Approximate
03:43AM 46.5355 -42.7290 75° East  Level FlightAware Approximate
03:44AM 46.5716 -42.5310 75° East  Level FlightAware Approximate
03:45AM 46.6074 -42.3328 75° East  Level FlightAware Approximate
03:46AM 46.6429 -42.1343 75° East  Level FlightAware Approximate
03:47AM 46.6781 -41.9355 75° East  Level FlightAware Approximate
03:48AM 46.7128 -41.7365 76° East  Level FlightAware Approximate
03:49AM 46.7473 -41.5373 76° East  Level FlightAware Approximate
03:50AM 46.7814 -41.3377 76° East  Level FlightAware Approximate
03:51AM 46.8151 -41.1380 76° East  Level FlightAware Approximate
03:52AM 46.8485 -40.9379 76° East  Level FlightAware Approximate
03:53AM 46.8816 -40.7377 76° East  Level FlightAware Approximate
03:54AM 46.9143 -40.5372 77° East  Level FlightAware Approximate
03:55AM 46.9467 -40.3364 77° East  Level FlightAware Approximate
03:56AM 46.9787 -40.1354 77° East  Level FlightAware Approximate
03:57AM 47.0093 -39.9341 78° East  Level FlightAware Approximate
03:58AM 47.0375 -39.7316 78° East  Level FlightAware Approximate
03:58AM 47.0000 -40.0000 78° East 491 565 39,000  Level ETMS Enhanced Traffic Management System
03:59AM 47.0653 -39.5290 79° East  Level FlightAware Approximate
04:00AM 47.0928 -39.3266 79° East  Level FlightAware Approximate
04:01AM 47.1199 -39.1240 79° East  Level FlightAware Approximate
04:02AM 47.1466 -38.9212 79° East  Level FlightAware Approximate
04:03AM 47.1732 -38.7183 79° East  Level FlightAware Approximate
04:04AM 47.2003 -38.5154 79° East  Level FlightAware Approximate
04:05AM 47.2180 -38.4279 79° East 491 565 39,000  Level FlightAware Transoceanic
04:06AM 47.2437 -38.2305 79° East 491 565 39,000  Level FlightAware Transoceanic
04:07AM 47.2691 -38.0329 79° East 491 565 39,000  Level FlightAware Transoceanic
04:08AM 47.2941 -37.8352 79° East 491 565 39,000  Level FlightAware Transoceanic
04:09AM 47.3188 -37.6372 80° East 491 565 39,000  Level FlightAware Transoceanic
04:10AM 47.3432 -37.4390 80° East 491 565 39,000  Level FlightAware Transoceanic
04:11AM 47.3672 -37.2407 80° East 491 565 39,000  Level FlightAware Transoceanic
04:12AM 47.3909 -37.0422 80° East 491 565 39,000  Level FlightAware Transoceanic
04:13AM 47.4142 -36.8435 80° East 491 565 39,000  Level FlightAware Transoceanic
04:14AM 47.4372 -36.6446 80° East 491 565 39,000  Level FlightAware Transoceanic
04:15AM 47.4599 -36.4456 81° East 491 565 39,000  Level FlightAware Transoceanic
04:16AM 47.4822 -36.2464 81° East 491 565 39,000  Level FlightAware Transoceanic
04:17AM 47.5042 -36.0470 81° East 491 565 39,000  Level FlightAware Transoceanic
04:18AM 47.5258 -35.8475 81° East 491 565 39,000  Level FlightAware Transoceanic
04:19AM 47.5471 -35.6478 81° East 491 565 39,000  Level FlightAware Transoceanic
04:20AM 47.5680 -35.4479 81° East 491 565 39,000  Level FlightAware Transoceanic
04:21AM 47.5886 -35.2479 81° East 491 565 39,000  Level FlightAware Transoceanic
04:22AM 47.6088 -35.0477 82° East 491 565 39,000  Level FlightAware Transoceanic
04:23AM 47.6287 -34.8474 82° East 491 565 39,000  Level FlightAware Transoceanic
04:24AM 47.6482 -34.6469 82° East 491 565 39,000  Level FlightAware Transoceanic
04:25AM 47.6674 -34.4463 82° East 491 565 39,000  Level FlightAware Transoceanic
04:26AM 47.6862 -34.2455 82° East 491 565 39,000  Level FlightAware Transoceanic
04:27AM 47.7047 -34.0446 82° East 491 565 39,000  Level FlightAware Transoceanic
04:28AM 47.7228 -33.8435 82° East 491 565 39,000  Level FlightAware Transoceanic
04:29AM 47.7406 -33.6423 83° East 491 565 39,000  Level FlightAware Transoceanic
04:30AM 47.7580 -33.4410 83° East 491 565 39,000  Level FlightAware Transoceanic
04:31AM 47.7751 -33.2395 83° East 491 565 39,000  Level FlightAware Transoceanic
04:32AM 47.7918 -33.0379 83° East 491 565 39,000  Level FlightAware Transoceanic
04:33AM 47.8082 -32.8362 83° East 491 565 39,000  Level FlightAware Transoceanic
04:34AM 47.8242 -32.6343 83° East 491 565 39,000  Level FlightAware Transoceanic
04:35AM 47.8398 -32.4324 83° East 491 565 39,000  Level FlightAware Transoceanic
04:36AM 47.8551 -32.2303 84° East 491 565 39,000  Level FlightAware Transoceanic
04:37AM 47.8701 -32.0281 84° East 491 565 39,000  Level FlightAware Transoceanic
04:38AM 47.8847 -31.8257 84° East 491 565 39,000  Level FlightAware Transoceanic
04:39AM 47.8989 -31.6233 84° East 491 565 39,000  Level FlightAware Transoceanic
04:40AM 47.9128 -31.4207 84° East 491 565 39,000  Level FlightAware Transoceanic
04:41AM 47.9263 -31.2181 84° East 491 565 39,000  Level FlightAware Transoceanic
04:42AM 47.9395 -31.0153 85° East 491 565 39,000  Level FlightAware Transoceanic
04:43AM 47.9523 -30.8124 85° East 491 565 39,000  Level FlightAware Transoceanic
04:44AM 47.9648 -30.6095 85° East 491 565 39,000  Level FlightAware Transoceanic
04:45AM 47.9769 -30.4064 85° East 491 565 39,000  Level FlightAware Transoceanic
04:46AM 47.9886 -30.2033 85° East 491 565 39,000  Level FlightAware Transoceanic
04:47AM 48.0003 -29.9940 85° East  Level FlightAware Approximate
04:48AM 48.0017 -29.9882 78° East  Level FlightAware Approximate
04:49AM 48.0303 -29.7825 78° East  Level FlightAware Approximate
04:50AM 48.0587 -29.5767 78° East  Level FlightAware Approximate
04:51AM 48.0866 -29.3706 78° East  Level FlightAware Approximate
04:51AM 48.0000 -30.0000 78° East 502 578 39,000  Level ETMS Enhanced Traffic Management System
04:52AM 48.1142 -29.1642 79° East  Level FlightAware Approximate
04:53AM 48.1414 -28.9577 79° East  Level FlightAware Approximate
04:54AM 48.1682 -28.7509 79° East  Level FlightAware Approximate
04:55AM 48.1947 -28.5434 79° East  Level FlightAware Approximate
04:56AM 48.2209 -28.3357 79° East  Level FlightAware Approximate
04:57AM 48.3052 -27.7457 79° East 502 578 39,000  Level FlightAware Transoceanic
04:58AM 48.3307 -27.5395 80° East 502 578 39,000  Level FlightAware Transoceanic
04:59AM 48.3559 -27.3330 80° East 502 578 39,000  Level FlightAware Transoceanic
05:00AM 48.3807 -27.1264 80° East 502 578 39,000  Level FlightAware Transoceanic
05:01AM 48.4052 -26.9196 80° East 502 578 39,000  Level FlightAware Transoceanic
05:02AM 48.4292 -26.7125 80° East 502 578 39,000  Level FlightAware Transoceanic
05:03AM 48.4529 -26.5053 80° East 502 578 39,000  Level FlightAware Transoceanic
05:04AM 48.4763 -26.2979 80° East 502 578 39,000  Level FlightAware Transoceanic
05:05AM 48.4992 -26.0903 81° East 502 578 39,000  Level FlightAware Transoceanic
05:06AM 48.5218 -25.8825 81° East 502 578 39,000  Level FlightAware Transoceanic
05:07AM 48.5440 -25.6745 81° East 502 578 39,000  Level FlightAware Transoceanic
05:08AM 48.5658 -25.4663 81° East 502 578 39,000  Level FlightAware Transoceanic
05:09AM 48.5873 -25.2580 81° East 502 578 39,000  Level FlightAware Transoceanic
05:10AM 48.6084 -25.0494 81° East 502 578 39,000  Level FlightAware Transoceanic
05:11AM 48.6291 -24.8407 82° East 502 578 39,000  Level FlightAware Transoceanic
05:12AM 48.6494 -24.6319 82° East 502 578 39,000  Level FlightAware Transoceanic
05:13AM 48.6693 -24.4229 82° East 502 578 39,000  Level FlightAware Transoceanic
05:14AM 48.6889 -24.2137 82° East 502 578 39,000  Level FlightAware Transoceanic
05:15AM 48.7081 -24.0043 82° East 502 578 39,000  Level FlightAware Transoceanic
05:16AM 48.7269 -23.7948 82° East 502 578 39,000  Level FlightAware Transoceanic
05:17AM 48.7453 -23.5851 82° East 502 578 39,000  Level FlightAware Transoceanic
05:18AM 48.7634 -23.3753 83° East 502 578 39,000  Level FlightAware Transoceanic
05:19AM 48.7811 -23.1654 83° East 502 578 39,000  Level FlightAware Transoceanic
05:20AM 48.7983 -22.9552 83° East 502 578 39,000  Level FlightAware Transoceanic
05:21AM 48.8152 -22.7450 83° East 502 578 39,000  Level FlightAware Transoceanic
05:22AM 48.8318 -22.5346 83° East 502 578 39,000  Level FlightAware Transoceanic
05:23AM 48.8479 -22.3241 83° East 502 578 39,000  Level FlightAware Transoceanic
05:24AM 48.8637 -22.1134 84° East 502 578 39,000  Level FlightAware Transoceanic
05:25AM 48.8790 -21.9026 84° East 502 578 39,000  Level FlightAware Transoceanic
05:26AM 48.8940 -21.6917 84° East 502 578 39,000  Level FlightAware Transoceanic
05:27AM 48.9086 -21.4806 84° East 502 578 39,000  Level FlightAware Transoceanic
05:28AM 48.9228 -21.2694 84° East 502 578 39,000  Level FlightAware Transoceanic
05:29AM 48.9366 -21.0581 84° East 502 578 39,000  Level FlightAware Transoceanic
05:30AM 48.9501 -20.8467 85° East 502 578 39,000  Level FlightAware Transoceanic
05:31AM 48.9632 -20.6352 85° East 502 578 39,000  Level FlightAware Transoceanic
05:32AM 48.9758 -20.4236 85° East 502 578 39,000  Level FlightAware Transoceanic
05:33AM 48.9881 -20.2118 85° East 502 578 39,000  Level FlightAware Transoceanic
05:34AM 49.0001 -19.9979 85° East  Level FlightAware Approximate
05:35AM 49.0002 -19.9958 85° East  Level FlightAware Approximate
05:36AM 49.0111 -19.7818 85° East  Level FlightAware Approximate
05:37AM 49.0215 -19.5676 86° East  Level FlightAware Approximate
05:38AM 49.0316 -19.3538 86° East  Level FlightAware Approximate
05:39AM 49.0413 -19.1400 86° East  Level FlightAware Approximate
05:40AM 49.0505 -18.9261 86° East  Level FlightAware Approximate
05:41AM 49.0594 -18.7120 86° East  Level FlightAware Approximate
05:42AM 49.0679 -18.4980 86° East  Level FlightAware Approximate
05:43AM 49.0759 -18.2838 87° East  Level FlightAware Approximate
05:44AM 49.0836 -18.0696 87° East  Level FlightAware Approximate
05:45AM 49.0909 -17.8553 87° East  Level FlightAware Approximate
05:46AM 49.0978 -17.6410 87° East  Level FlightAware Approximate
05:47AM 49.1043 -17.4266 87° East  Level FlightAware Approximate
05:48AM 49.1104 -17.2121 87° East  Level FlightAware Approximate
05:49AM 49.1161 -16.9976 88° East  Level FlightAware Approximate
05:50AM 49.1214 -16.7831 88° East  Level FlightAware Approximate
05:51AM 49.1263 -16.5685 88° East  Level FlightAware Approximate
05:52AM 49.1308 -16.3538 88° East  Level FlightAware Approximate
05:53AM 49.1349 -16.1391 88° East  Level FlightAware Approximate
05:54AM 49.1386 -15.9244 88° East  Level FlightAware Approximate
05:55AM 49.1419 -15.7097 89° East  Level FlightAware Approximate
05:56AM 49.1448 -15.4949 89° East  Level FlightAware Approximate
05:57AM 49.1473 -15.2801 89° East  Level FlightAware Approximate
05:58AM 49.1494 -15.0653 89° East  Level FlightAware Approximate
05:59AM 49.1512 -14.8505 89° East  Level FlightAware Approximate
06:00AM 49.1526 -14.6356 89° East  Level FlightAware Approximate
06:01AM 49.1537 -14.4208 90° East  Level FlightAware Approximate
06:02AM 49.1543 -14.2059 90° East  Level FlightAware Approximate
06:03AM 49.1545 -13.9911 90° East  Level FlightAware Approximate
06:04AM 49.1544 -13.7762 90° East  Level FlightAware Approximate
06:05AM 49.1538 -13.5614 90° East  Level FlightAware Approximate
06:06AM 49.1528 -13.3465 90° East  Level FlightAware Approximate
06:07AM 49.1515 -13.1317 90° East  Level FlightAware Approximate
06:08AM 49.1497 -12.9168 91° East  Level FlightAware Approximate
06:09AM 49.1475 -12.7020 91° East  Level FlightAware Approximate
06:10AM 49.1450 -12.4872 91° East  Level FlightAware Approximate
06:11AM 49.1420 -12.2725 91° East  Level FlightAware Approximate
06:12AM 49.1386 -12.0577 91° East  Level FlightAware Approximate
06:13AM 49.1349 -11.8430 91° East  Level FlightAware Approximate
06:14AM 49.1307 -11.6284 92° East  Level FlightAware Approximate
06:15AM 49.1262 -11.4137 92° East  Level FlightAware Approximate
06:16AM 49.1212 -11.1991 92° East  Level FlightAware Approximate
06:17AM 49.1159 -10.9846 92° East  Level FlightAware Approximate
06:18AM 49.1101 -10.7701 92° East  Level FlightAware Approximate
06:19AM 49.1040 -10.5556 92° East  Level FlightAware Approximate
06:20AM 49.0974 -10.3412 93° East  Level FlightAware Approximate
06:21AM 49.0905 -10.1269 93° East  Level FlightAware Approximate
06:22AM 49.0832 -9.9126 93° East  Level FlightAware Approximate
06:23AM 49.0754 -9.6984 93° East  Level FlightAware Approximate
06:24AM 49.0673 -9.4842 93° East  Level FlightAware Approximate
06:25AM 49.0588 -9.2702 93° East  Level FlightAware Approximate
06:26AM 49.0499 -9.0562 94° East  Level FlightAware Approximate
06:27AM 49.0406 -8.8422 94° East  Level FlightAware Approximate
06:28AM 49.0308 -8.6284 94° East  Level FlightAware Approximate
06:28AM 49.0500 -8.9390 94° East 511 588 39,000  Level FlightAware
06:29AM 49.0207 -8.4147 94° East  Level FlightAware Approximate
06:29AM 49.0480 -8.7790 91° East 511 588 39,000  Level FlightAware
06:30AM 49.0450 -8.6320 92° East 511 588 39,000  Level FlightAware
06:30AM 49.0410 -8.4740 92° East 510 587 39,000  Level FlightAware
06:31AM 49.0380 -8.3320 92° East 510 587 39,000  Level FlightAware
06:32AM 49.0330 -8.1650 93° East 509 586 39,000  Level FlightAware
06:33AM 49.0290 -8.0220 92° East 510 587 39,000  Level FlightAware
06:33AM 49.0260 -7.8790 92° East 510 587 39,000  Level FlightAware
06:34AM 49.0260 -7.7150 90° East 510 587 39,000  Level FlightAware
06:35AM 49.0260 -7.5820 90° East 509 586 39,000  Level FlightAware
06:35AM 49.0250 -7.4470 91° East 509 586 39,000  Level FlightAware
06:36AM 49.0240 -7.2700 90° East 508 585 39,000  Level FlightAware
06:37AM 49.0230 -7.1260 91° East 507 583 39,000  Level FlightAware
06:37AM 49.0210 -6.9670 91° East 506 582 39,000  Level FlightAware
06:38AM 49.0190 -6.8290 91° East 506 582 39,000  Level FlightAware
06:39AM 49.0180 -6.6870 91° East 507 583 39,000  Level FlightAware
06:40AM 49.0160 -6.5260 91° East 508 585 39,000  Level FlightAware
06:40AM 49.0130 -6.3810 92° East 508 585 39,000  Level FlightAware
06:41AM 49.0110 -6.2250 91° East 508 585 39,000  Level FlightAware
06:42AM 49.0090 -6.0810 91° East 508 585 39,000  Level FlightAware
06:42AM 49.0060 -5.9150 92° East 509 586 39,000  Level FlightAware
06:43AM 49.0040 -5.7720 91° East 509 586 39,000  Level FlightAware
06:44AM 49.0010 -5.6320 92° East 509 586 39,000  Level FlightAware
06:44AM 48.9980 -5.4690 92° East 509 586 39,000  Level FlightAware
06:45AM 48.9960 -5.3310 91° East 509 586 39,000  Level FlightAware
06:46AM 48.9930 -5.1810 92° East 509 586 39,000  Level FlightAware
06:47AM 48.9890 -5.0310 92° East 509 586 39,000  Level FlightAware
06:47AM 48.9860 -4.8790 92° East 508 585 39,000  Level FlightAware
06:48AM 48.9830 -4.7250 92° East 508 585 39,000  Level FlightAware
06:49AM 48.9790 -4.5880 92° East 509 586 39,000  Level FlightAware
06:49AM 48.9760 -4.4370 92° East 509 586 39,000  Level FlightAware
06:50AM 48.9720 -4.2740 92° East 510 587 39,000  Level FlightAware
06:51AM 48.9690 -4.1350 92° East 511 588 39,000  Level FlightAware
06:51AM 48.9650 -3.9930 92° East 511 588 39,000  Level FlightAware
06:52AM 48.9600 -3.8270 93° East 510 587 39,000  Level FlightAware
06:53AM 48.9550 -3.6790 93° East 510 587 39,000  Level FlightAware
06:54AM 48.9500 -3.5250 93° East 510 587 39,000  Level FlightAware
06:54AM 48.9450 -3.3840 93° East 510 587 39,000  Level FlightAware
06:55AM 48.9390 -3.2240 93° East 511 588 39,000  Level FlightAware
06:56AM 48.9350 -3.1030 93° East 512 589 39,000  Level FlightAware
06:56AM 48.9280 -2.9160 93° East 512 589 39,000  Level FlightAware
06:57AM 48.9230 -2.7760 93° East 512 589 39,000  Level FlightAware
06:58AM 48.9170 -2.6250 93° East 513 590 39,000  Level FlightAware
06:58AM 48.9110 -2.4750 93° East 514 592 39,000  Level FlightAware
07:01AM 48.8755 -2.0438 97° East  Level Estimated
07:02AM 48.8574 -1.8319 97° East  Level Estimated
07:02AM 48.8810 -1.7580 97° East 523 602 39,000  Level FlightAware
07:02AM 48.8730 -1.5930 94° East 524 603 39,000  Level FlightAware
07:03AM 48.8670 -1.4480 94° East 523 602 39,000  Level FlightAware
07:04AM 48.8580 -1.2750 94° East 522 601 39,000  Level FlightAware
07:05AM 48.8490 -1.0860 94° East 521 600 39,000  Level FlightAware
07:05AM 48.8420 -0.9450 94° East 520 598 39,000  Level FlightAware
07:06AM 48.8330 -0.7730 94° East 519 597 39,000  Level FlightAware
07:07AM 48.8250 -0.6340 95° East 517 595 39,000  Level FlightAware
07:08AM 48.8170 -0.4900 95° East 516 594 39,000  Level FlightAware
07:08AM 48.8080 -0.3240 95° East 515 593 39,000  Level FlightAware
07:09AM 48.8000 -0.1790 95° East 516 594 39,000  Level FlightAware
07:10AM 48.7910 -0.0170 95° East 517 595 39,000  Level FlightAware
07:10AM 48.7820 0.1290 95° East 519 597 39,000  Level FlightAware
07:11AM 48.7730 0.2740 95° East 522 601 39,000  Level FlightAware
07:12AM 48.7630 0.4360 95° East 524 603 39,000  Level FlightAware
07:12AM 48.7540 0.5810 95° East 526 605 39,000  Level FlightAware
07:13AM 48.7430 0.7510 96° East 526 605 39,000  Level FlightAware
07:14AM 48.7350 0.8700 96° East 527 606 39,000  Level FlightAware
07:14AM 48.7240 1.0180 96° East 527 606 39,000  Level FlightAware
07:15AM 48.7120 1.2040 96° East 529 609 39,000  Level FlightAware
07:16AM 48.7010 1.3470 97° East 530 610 39,000  Level FlightAware
07:17AM 48.6900 1.4970 96° East 528 608 39,000  Level FlightAware
07:17AM 48.6810 1.6160 96° East 529 609 39,000  Level FlightAware
07:18AM 48.6680 1.7840 97° East 528 608 39,000  Level FlightAware
07:19AM 48.6560 1.9460 96° East 527 606 39,000  Level FlightAware
07:20AM 48.6404 2.1416 97° East 526 605 39,000  Level FlightAware ADS-B
07:20AM 48.6270 2.3060 97° East 522 601 39,000  Level FlightAware
07:21AM 48.6150 2.4659 96° East 520 598 39,000  Level FlightAware ADS-B
07:22AM 48.6037 2.6130 97° East 519 597 39,000  Level FlightAware ADS-B
07:23AM 48.5944 2.8496 93° East 516 594 39,000  Level FlightAware ADS-B
07:23AM 48.5880 2.9480 96° East 513 590 39,000  Level FlightAware
07:24AM 48.5711 3.0803 101° East 508 585 39,000  Level FlightAware ADS-B
07:24AM 48.5513 3.1893 105° East 507 583 39,000  Level FlightAware ADS-B
07:26AM 48.5040 3.4490 105° East 505 581 39,000  Level FlightAware
07:26AM 48.4790 3.5760 106° East 504 580 39,000  Level FlightAware
07:27AM 48.4520 3.7190 106° East 506 582 39,000  Level FlightAware
07:28AM 48.4220 3.8700 107° East 508 585 39,000  Level FlightAware
07:29AM 48.3940 4.0100 107° East 510 587 39,000  Level FlightAware
07:29AM 48.3680 4.1480 106° East 509 586 39,000  Level FlightAware
07:30AM 48.3410 4.2930 106° East 511 588 39,000  Level FlightAware
07:31AM 48.3140 4.4360 106° East 511 588 39,000  Level FlightAware
07:31AM 48.2800 4.5450 115° Southeast 502 578 39,000 -360 Level FlightAware
07:32AM 48.2250 4.7150 116° Southeast 502 578 38,500 -1,440 Descending FlightAware
07:33AM 48.1880 4.8250 117° Southeast 501 577 36,900 -2,580 Descending FlightAware
07:33AM 48.1500 4.9410 116° Southeast 534 615 35,300 -2,280 Descending FlightAware
07:34AM 48.1050 5.1140 111° Southeast 525 604 33,700 -2,100 Descending FlightAware
07:35AM 48.0850 5.2240 105° East 523 602 32,400 -1,860 Descending FlightAware
07:36AM 48.0530 5.4060 105° East 510 587 31,100 -960 Descending FlightAware
07:36AM 48.0320 5.5260 105° East 512 589 31,000 -120 Descending FlightAware
07:37AM 48.0030 5.6860 105° East 515 593 31,000 -1,020 Level FlightAware
07:38AM 47.9780 5.8270 105° East 512 589 29,600 -1,920 Descending FlightAware
07:38AM 47.9530 5.9620 105° East 495 570 28,300 -2,340 Descending FlightAware
07:39AM 47.9300 6.0930 105° East 490 564 26,500 -2,640 Descending FlightAware
07:40AM 47.8950 6.2820 105° East 473 544 24,200 -1,980 Descending FlightAware
07:41AM 47.8710 6.4140 105° East 463 533 23,100 -1,380 Descending FlightAware
07:41AM 47.8490 6.5390 105° East 459 528 22,300 -1,860 Descending FlightAware
07:42AM 47.8180 6.7070 105° East 446 513 20,200 -2,160 Descending FlightAware
07:43AM 47.7980 6.8070 107° East 436 502 19,100 -900 Descending FlightAware
07:44AM 47.7710 6.9490 106° East 431 496 19,000 -120 Descending FlightAware
07:44AM 47.7500 7.0560 106° East 434 499 19,000 -1,380 Level FlightAware
07:47AM 47.6227 7.4636 101° East  Level FlightAware Approximate
07:48AM 47.5943 7.6677 104° East  Level FlightAware Approximate
07:49AM 47.5606 7.8699 104° East  Level FlightAware Approximate
07:50AM 47.5314 8.0735 101° East  Level FlightAware Approximate
07:51AM 47.5011 8.2766 104° East  Level FlightAware Approximate
07:52AM 47.4594 8.4675 102° East  Level FlightAware Approximate
07:52AM 47.6850 8.1460 102° East 277 319 7,500  Level FlightAware
07:53AM 47.6690 8.2360 105° East 255 293 6,700 -1,680 Descending FlightAware
07:53AM 47.6660 8.2490 109° East 249 287 6,400 -1,800 Descending FlightAware
07:53AM 47.6510 8.2750 131° Southeast 224 258 5,800 -1,920 Descending FlightAware
07:54AM 47.6350 8.2980 136° Southeast 208 239 5,000 -2,100 Descending FlightAware
07:54AM 47.6220 8.3130 142° Southeast 191 220 4,400 -1,500 Descending FlightAware
07:54AM 47.6020 8.3390 139° Southeast 200 230 3,900 -1,080 Descending FlightAware
07:55AM 47.5940 8.3500 137° Southeast 181 208 3,600 -1,080 Descending FlightAware
07:55AM 47.5740 8.3750 140° Southeast 175 201 3,100 -900 Descending FlightAware
07:56AM 47.5560 8.4000 137° Southeast 152 175 2,700 -840 Descending FlightAware
07:56AM 47.5460 8.4110 143° Southeast 135 155 2,400 -780 Descending FlightAware
07:57AM 47.5280 8.4350 138° Southeast 138 159 2,000 -720 Descending FlightAware
07:57AM 47.5220 8.4420 142° Southeast 137 158 1,800 -480 Descending FlightAware
07:57AM 47.5040 8.4660 138° Southeast 149 171 1,600 -360 Descending FlightAware